Latest Weather Observations for Banana Bank

IDQ60801

Issued at 3:32 am EST Sunday 29 March 2015 (issued every 30 minutes, with the page automatically refreshed every 10 minutes)

About weather observations | Map of weather stations | Latest weather observations for QLD | Other Formats
Station Details ID: 040925 Name: BANANA BANK NORTH BEACON Lat: -27.53 Lon: 153.33 Height: 7.0 m
Data from the previous 72 hours. | See also: Recent months for locations in Queensland
Date/Time
EST
Temp
°C
App
Temp
°C
Dew
Point
Rel
Hum
%
Delta-T
°C
Wind Press
QNH
hPa
Press
MSL
hPa
Rain
since 9 am
mm
Dir
 
Spd
km/h
Gust
km/h
Spd
kts
Gust
kts
29/03:30am - - - - - E 15 19 8 10 - - -
29/03:00am - - - - - ENE 15 19 8 10 - - -
29/02:30am - - - - - ENE 15 19 8 10 - - -
29/02:00am - - - - - ENE 13 15 7 8 - - -
29/01:30am - - - - - E 13 15 7 8 - - -
29/01:00am - - - - - ENE 15 20 8 11 - - -
29/12:30am - - - - - E 15 19 8 10 - - -
29/12:00am - - - - - E 15 19 8 10 - - -
 
Date/Time
EST
Temp
°C
App
Temp
°C
Dew
Point
Rel
Hum
%
Delta-T
°C
Wind Press
QNH
hPa
Press
MSL
hPa
Rain
since 9 am
mm
Dir
 
Spd
km/h
Gust
km/h
Spd
kts
Gust
kts
28/11:30pm - - - - - ESE 13 15 7 8 - - -
28/11:00pm - - - - - E 9 13 5 7 - - -
28/10:30pm - - - - - E 13 17 7 9 - - -
28/10:00pm - - - - - ENE 17 20 9 11 - - -
28/09:30pm - - - - - E 17 22 9 12 - - -
28/09:00pm - - - - - ESE 17 22 9 12 - - -
28/08:30pm - - - - - E 17 19 9 10 - - -
28/08:00pm - - - - - E 15 20 8 11 - - -
28/07:30pm - - - - - E 17 20 9 11 - - -
28/07:00pm - - - - - E 19 24 10 13 - - -
28/06:30pm - - - - - E 19 24 10 13 - - -
28/06:00pm - - - - - E 19 24 10 13 - - -
28/05:30pm - - - - - E 19 22 10 12 - - -
28/05:00pm - - - - - E 22 26 12 14 - - -
28/04:30pm - - - - - ESE 24 28 13 15 - - -
28/04:00pm - - - - - ESE 22 28 12 15 - - -
28/03:30pm - - - - - E 22 28 12 15 - - -
28/03:00pm - - - - - ESE 22 28 12 15 - - -
28/02:30pm - - - - - ESE 24 28 13 15 - - -
28/02:00pm - - - - - ESE 22 28 12 15 - - -
28/01:30pm - - - - - SE 20 24 11 13 - - -
28/01:00pm - - - - - ESE 22 30 12 16 - - -
28/12:30pm - - - - - SE 22 26 12 14 - - -
28/12:00pm - - - - - SE 22 28 12 15 - - -
28/11:30am - - - - - SE 22 26 12 14 - - -
28/11:00am - - - - - SE 26 30 14 16 - - -
28/10:30am - - - - - SE 22 28 12 15 - - -
28/10:00am - - - - - SSE 15 20 8 11 - - -
28/09:30am - - - - - SSE 22 26 12 14 - - -
28/09:00am - - - - - S 22 28 12 15 - - -
28/08:30am - - - - - S 20 24 11 13 - - -
28/08:00am - - - - - SSE 17 20 9 11 - - -
28/07:30am - - - - - SSE 20 24 11 13 - - -
28/07:00am - - - - - SSE 19 22 10 12 - - -
28/06:30am - - - - - S 15 17 8 9 - - -
28/06:00am - - - - - SSE 17 20 9 11 - - -
28/05:30am - - - - - S 17 20 9 11 - - -
28/05:00am - - - - - S 15 19 8 10 - - -
28/04:30am - - - - - S 15 17 8 9 - - -
28/04:00am - - - - - S 15 17 8 9 - - -
28/03:30am - - - - - S 15 19 8 10 - - -
28/03:00am - - - - - S 17 19 9 10 - - -
28/02:30am - - - - - S 17 19 9 10 - - -
28/02:00am - - - - - S 15 19 8 10 - - -
28/01:30am - - - - - S 15 17 8 9 - - -
28/01:00am - - - - - S 13 15 7 8 - - -
28/12:30am - - - - - SSE 11 15 6 8 - - -
28/12:00am - - - - - SE 15 19 8 10 - - -
 
Date/Time
EST
Temp
°C
App
Temp
°C
Dew
Point
Rel
Hum
%
Delta-T
°C
Wind Press
QNH
hPa
Press
MSL
hPa
Rain
since 9 am
mm
Dir
 
Spd
km/h
Gust
km/h
Spd
kts
Gust
kts
27/11:30pm - - - - - ESE 15 19 8 10 - - -
27/11:00pm - - - - - ESE 17 19 9 10 - - -
27/10:30pm - - - - - SE 17 19 9 10 - - -
27/10:00pm - - - - - SE 19 20 10 11 - - -
27/09:30pm - - - - - ESE 17 19 9 10 - - -
27/09:00pm - - - - - ESE 19 22 10 12 - - -
27/08:30pm - - - - - ESE 19 24 10 13 - - -
27/08:00pm - - - - - ESE 19 22 10 12 - - -
27/07:30pm - - - - - SE 17 22 9 12 - - -
27/07:00pm - - - - - SSE 24 30 13 16 - - -
27/06:30pm - - - - - SSE 30 35 16 19 - - -
27/06:00pm - - - - - SE 30 35 16 19 - - -
27/05:30pm - - - - - SE 32 39 17 21 - - -
27/05:00pm - - - - - SE 32 39 17 21 - - -
27/04:30pm - - - - - SE 30 37 16 20 - - -
27/04:00pm - - - - - SE 30 35 16 19 - - -
27/03:30pm - - - - - SE 28 35 15 19 - - -
27/03:00pm - - - - - SE 28 37 15 20 - - -
27/02:30pm - - - - - SE 24 30 13 16 - - -
27/02:00pm - - - - - SE 24 28 13 15 - - -
27/01:30pm - - - - - SE 24 28 13 15 - - -
27/01:00pm - - - - - SE 20 24 11 13 - - -
27/12:30pm - - - - - SE 26 32 14 17 - - -
27/12:00pm - - - - - SE 26 32 14 17 - - -
27/11:30am - - - - - SSE 13 17 7 9 - - -
27/11:00am - - - - - SSE 11 15 6 8 - - -
27/10:30am - - - - - SSW 11 17 6 9 - - -
27/10:00am - - - - - WSW 6 7 3 4 - - -
27/09:30am - - - - - NW 6 9 3 5 - - -
27/09:00am - - - - - WNW 6 7 3 4 - - -
27/08:30am - - - - - WSW 6 9 3 5 - - -
27/08:00am - - - - - WNW 13 17 7 9 - - -
27/07:30am - - - - - NW 17 20 9 11 - - -
27/07:00am - - - - - NNW 19 22 10 12 - - -
27/06:30am - - - - - NW 13 17 7 9 - - -
27/06:00am - - - - - NW 13 15 7 8 - - -
27/05:30am - - - - - NNW 20 28 11 15 - - -
27/05:00am - - - - - NNW 15 20 8 11 - - -
27/04:30am - - - - - NNW 20 24 11 13 - - -
27/04:00am - - - - - NNW 24 30 13 16 - - -
27/03:30am - - - - - NNW 24 28 13 15 - - -
27/03:00am - - - - - NNW 24 30 13 16 - - -
27/02:30am - - - - - NNW 24 28 13 15 - - -
27/02:00am - - - - - NNW 22 26 12 14 - - -
27/01:30am - - - - - NNW 22 28 12 15 - - -
27/01:00am - - - - - NNW 22 24 12 13 - - -
27/12:30am - - - - - NNW 22 26 12 14 - - -
27/12:00am - - - - - NNW 26 32 14 17 - - -
 
Date/Time
EST
Temp
°C
App
Temp
°C
Dew
Point
Rel
Hum
%
Delta-T
°C
Wind Press
QNH
hPa
Press
MSL
hPa
Rain
since 9 am
mm
Dir
 
Spd
km/h
Gust
km/h
Spd
kts
Gust
kts
26/11:30pm - - - - - N 28 32 15 17 - - -
26/11:00pm - - - - - N 26 32 14 17 - - -
26/10:30pm - - - - - N 24 28 13 15 - - -
26/10:00pm - - - - - N 24 28 13 15 - - -
26/09:30pm - - - - - N 22 26 12 14 - - -
26/09:00pm - - - - - N 26 32 14 17 - - -
26/08:30pm - - - - - NNE 19 24 10 13 - - -
26/08:00pm - - - - - NNE 17 19 9 10 - - -
26/07:30pm - - - - - N 22 26 12 14 - - -
26/07:00pm - - - - - N 20 26 11 14 - - -
26/06:30pm - - - - - N 20 22 11 12 - - -
26/06:00pm - - - - - N 19 22 10 12 - - -
26/05:30pm - - - - - NNE 24 28 13 15 - - -
26/05:00pm - - - - - NNE 24 30 13 16 - - -
26/04:30pm - - - - - NNE 26 32 14 17 - - -
26/04:00pm - - - - - NNE 26 33 14 18 - - -
26/03:30pm - - - - - NNE 24 32 13 17 - - -
26/03:00pm - - - - - NNE 24 30 13 16 - - -
26/02:30pm - - - - - NNE 24 30 13 16 - - -
26/02:00pm - - - - - N 24 28 13 15 - - -
26/01:30pm - - - - - N 26 30 14 16 - - -
26/01:00pm - - - - - N 24 28 13 15 - - -
26/12:30pm - - - - - N 24 28 13 15 - - -
26/12:00pm - - - - - N 24 30 13 16 - - -
26/11:30am - - - - - N 24 28 13 15 - - -
26/11:00am - - - - - N 24 28 13 15 - - -
26/10:30am - - - - - N 24 28 13 15 - - -
26/10:00am - - - - - N 24 28 13 15 - - -
26/09:30am - - - - - N 24 30 13 16 - - -
26/09:00am - - - - - N 24 28 13 15 - - -
26/08:30am - - - - - N 24 28 13 15 - - -
26/08:00am - - - - - N 24 28 13 15 - - -
26/07:30am - - - - - N 22 28 12 15 - - -
26/07:00am - - - - - N 20 24 11 13 - - -
26/06:30am - - - - - N 20 24 11 13 - - -
26/06:00am - - - - - N 15 19 8 10 - - -
26/05:30am - - - - - NNE 13 22 7 12 - - -
26/05:00am - - - - - NNE 6 9 3 5 - - -
26/04:30am - - - - - NNE 11 13 6 7 - - -
26/04:00am - - - - - NNE 9 11 5 6 - - -

Other Formats:

Comma delimited format used in spreadsheet applications
http://www.bom.gov.au/fwo/IDQ60801/IDQ60801.94591.axf

JavaScript Object Notation format (JSON) in row-major order
http://www.bom.gov.au/fwo/IDQ60801/IDQ60801.94591.json